createdAt,value
2022-09-15T00:00:47.089Z,7.90
2022-09-15T00:11:11.659Z,11.55
2022-09-15T00:21:38.270Z,16.42
2022-09-15T00:32:00.228Z,11.23
2022-09-15T00:42:24.079Z,15.23
2022-09-15T00:52:50.284Z,9.88
2022-09-15T01:03:13.961Z,12.52
2022-09-15T01:13:35.341Z,18.80
2022-09-15T01:24:34.945Z,16.00
2022-09-15T01:35:06.201Z,11.75
2022-09-15T01:45:31.478Z,13.05
2022-09-15T01:56:00.936Z,21.33
2022-09-15T02:06:29.701Z,16.17
2022-09-15T02:16:55.212Z,15.63
2022-09-15T02:27:21.857Z,25.27
2022-09-15T02:48:09.405Z,10.82
2022-09-15T02:58:33.547Z,14.85
2022-09-15T03:08:58.298Z,19.33
2022-09-15T03:19:21.092Z,19.33
2022-09-15T03:29:42.587Z,19.48
2022-09-15T03:40:06.973Z,14.35
2022-09-15T03:50:28.602Z,17.02
2022-09-15T04:00:51.482Z,14.63
2022-09-15T04:11:15.563Z,21.63
2022-09-15T04:21:38.824Z,20.67
2022-09-15T04:32:01.002Z,16.55
2022-09-15T04:42:24.081Z,11.75
2022-09-15T04:52:45.691Z,15.73
2022-09-15T05:03:08.376Z,14.45
2022-09-15T05:13:30.103Z,12.85
2022-09-15T05:23:53.957Z,15.70
2022-09-15T05:34:15.903Z,20.00
2022-09-15T05:44:40.873Z,19.27
2022-09-15T05:55:03.742Z,18.30
2022-09-15T06:05:26.602Z,10.75
2022-09-15T06:15:48.107Z,12.98
2022-09-15T06:26:12.588Z,15.15
2022-09-15T06:36:34.670Z,14.43
2022-09-15T06:46:58.044Z,10.40
2022-09-15T06:57:19.512Z,8.75
2022-09-15T07:07:42.529Z,13.55
2022-09-15T07:18:03.952Z,8.00
2022-09-15T07:28:26.920Z,5.85
2022-09-15T07:38:51.829Z,8.15
2022-09-15T07:49:15.200Z,7.15
2022-09-15T07:59:41.019Z,5.32
2022-09-15T08:10:04.301Z,10.05
2022-09-15T08:20:26.298Z,8.13
2022-09-15T08:30:49.294Z,12.88
2022-09-15T08:41:16.246Z,3.10
2022-09-15T08:51:45.242Z,10.73
2022-09-15T09:02:39.420Z,5.72
2022-09-15T09:13:14.464Z,6.85
2022-09-15T09:34:11.691Z,9.18
2022-09-15T09:44:33.922Z,5.53
2022-09-15T09:55:03.015Z,7.93
2022-09-15T10:05:24.870Z,8.52
2022-09-15T10:15:53.340Z,4.50
2022-09-15T10:26:23.445Z,5.70
2022-09-15T10:36:47.555Z,6.80
2022-09-15T10:47:22.845Z,13.30
2022-09-15T10:58:02.098Z,3.00
2022-09-15T11:08:39.004Z,6.05
2022-09-15T11:19:12.566Z,3.67
2022-09-15T11:29:40.814Z,3.27
2022-09-15T11:40:14.247Z,3.83
2022-09-15T11:50:40.493Z,2.77
2022-09-15T12:01:09.953Z,4.32
2022-09-15T12:11:36.575Z,2.75
2022-09-15T12:22:06.527Z,2.05
2022-09-15T12:32:31.119Z,4.65
2022-09-15T12:42:55.783Z,5.45
2022-09-15T12:53:22.840Z,5.97
2022-09-15T13:04:29.068Z,4.68
2022-09-15T13:14:54.884Z,7.05
2022-09-15T13:25:24.740Z,1.67
2022-09-15T13:36:00.834Z,6.50
2022-09-15T13:46:37.241Z,5.32
2022-09-15T13:57:02.949Z,6.10
2022-09-15T14:07:26.217Z,9.30
2022-09-15T14:17:49.345Z,3.65
2022-09-15T14:28:20.504Z,5.90
2022-09-15T14:38:43.288Z,6.63
2022-09-15T14:49:11.208Z,6.38
2022-09-15T14:59:38.628Z,5.18
2022-09-15T15:10:03.653Z,3.47
2022-09-15T15:31:15.101Z,2.17
2022-09-15T15:41:41.832Z,2.80
2022-09-15T15:52:03.777Z,2.80
2022-09-15T16:02:28.662Z,3.50
2022-09-15T16:12:50.546Z,2.87
2022-09-15T16:23:18.642Z,1.42
2022-09-15T16:33:45.276Z,5.82
2022-09-15T16:44:18.702Z,4.60
2022-09-15T16:54:40.585Z,6.13
2022-09-15T17:05:03.604Z,2.45
2022-09-15T17:15:28.818Z,5.30
2022-09-15T17:26:09.736Z,2.10
2022-09-15T17:36:36.163Z,1.60
2022-09-15T17:46:59.779Z,1.60
2022-09-15T17:57:21.840Z,3.63
2022-09-15T18:07:51.645Z,3.92
2022-09-15T18:18:15.989Z,3.33
2022-09-15T18:28:38.990Z,2.65
2022-09-15T18:39:00.933Z,4.38
2022-09-15T18:49:26.532Z,1.80
2022-09-15T18:59:48.197Z,0.83
2022-09-15T19:10:12.572Z,9.38
2022-09-15T19:20:34.222Z,6.90
2022-09-15T19:30:56.974Z,1.60
2022-09-15T19:41:18.844Z,2.85
2022-09-15T19:51:42.006Z,3.97
2022-09-15T20:02:03.629Z,3.80
2022-09-15T20:12:27.045Z,6.85
2022-09-15T20:22:48.650Z,3.47
2022-09-15T20:33:11.363Z,6.35
2022-09-15T20:43:33.253Z,3.50
2022-09-15T20:53:57.439Z,6.25
2022-09-15T21:04:19.027Z,4.50
2022-09-15T21:14:42.005Z,4.20
2022-09-15T21:25:04.924Z,6.07
2022-09-15T21:35:27.972Z,3.72
2022-09-15T21:45:49.590Z,5.30
2022-09-15T21:56:13.781Z,3.45
2022-09-15T22:06:36.838Z,3.20
2022-09-15T22:16:59.454Z,3.83
2022-09-15T22:27:20.832Z,4.78
2022-09-15T22:37:43.990Z,3.00
2022-09-15T22:48:06.252Z,9.88
2022-09-15T22:58:29.370Z,8.13
2022-09-15T23:08:52.721Z,4.63
2022-09-15T23:19:15.659Z,4.65
2022-09-15T23:29:36.858Z,3.78
2022-09-15T23:39:59.926Z,3.00
2022-09-15T23:50:21.730Z,1.60
